sensor_id;sensor_type;location;lat;lon;timestamp;pressure;altitude;pressure_sealevel;temperature;humidity
75312;BME280;63906;55.686;37.532;2023-03-14T00:01:29;99219.47;;;-2.48;67.98
75312;BME280;63906;55.686;37.532;2023-03-14T00:06:30;99205.25;;;-2.31;68.64
75312;BME280;63906;55.686;37.532;2023-03-14T00:11:50;99161.56;;;-2.33;70.66
75312;BME280;63906;55.686;37.532;2023-03-14T00:17:09;99181.44;;;-2.01;76.72
75312;BME280;63906;55.686;37.532;2023-03-14T00:22:28;99157.56;;;-2.14;69.30
75312;BME280;63906;55.686;37.532;2023-03-14T00:27:50;99153.06;;;-2.01;71.64
75312;BME280;63906;55.686;37.532;2023-03-14T00:33:09;99128.94;;;-2.11;68.64
75312;BME280;63906;55.686;37.532;2023-03-14T00:38:30;99130.03;;;-2.14;68.27
75312;BME280;63906;55.686;37.532;2023-03-14T00:43:49;99144.66;;;-2.14;72.29
75312;BME280;63906;55.686;37.532;2023-03-14T00:49:08;99152.88;;;-2.09;71.63
75312;BME280;63906;55.686;37.532;2023-03-14T00:54:27;99144.78;;;-2.05;73.18
75312;BME280;63906;55.686;37.532;2023-03-14T00:59:28;99120.66;;;-1.83;80.53
75312;BME280;63906;55.686;37.532;2023-03-14T01:04:28;99120.97;;;-1.76;78.20
75312;BME280;63906;55.686;37.532;2023-03-14T01:09:30;99131.88;;;-1.73;78.92
75312;BME280;63906;55.686;37.532;2023-03-14T01:14:31;99116.19;;;-1.81;75.28
75312;BME280;63906;55.686;37.532;2023-03-14T01:19:32;99138.97;;;-1.86;77.34
75312;BME280;63906;55.686;37.532;2023-03-14T01:24:51;99111.28;;;-1.84;79.38
75312;BME280;63906;55.686;37.532;2023-03-14T01:29:52;99076.84;;;-1.94;79.42
75312;BME280;63906;55.686;37.532;2023-03-14T01:34:52;99043.44;;;-2.17;79.65
75312;BME280;63906;55.686;37.532;2023-03-14T01:39:52;99055.38;;;-2.15;80.23
75312;BME280;63906;55.686;37.532;2023-03-14T01:44:55;99059.13;;;-2.20;80.43
75312;BME280;63906;55.686;37.532;2023-03-14T01:50:04;99020.47;;;-2.20;81.31
75312;BME280;63906;55.686;37.532;2023-03-14T01:55:10;98997.94;;;-2.38;80.95
75312;BME280;63906;55.686;37.532;2023-03-14T02:00:16;99019.44;;;-1.96;82.02
75312;BME280;63906;55.686;37.532;2023-03-14T02:05:23;99005.16;;;-1.79;83.49
75312;BME280;63906;55.686;37.532;2023-03-14T02:10:30;98997.91;;;-2.06;80.91
75312;BME280;63906;55.686;37.532;2023-03-14T02:15:32;98996.34;;;-1.77;82.48
75312;BME280;63906;55.686;37.532;2023-03-14T02:20:48;98977.34;;;-1.97;82.84
75312;BME280;63906;55.686;37.532;2023-03-14T02:26:01;98983.25;;;-2.06;85.47
75312;BME280;63906;55.686;37.532;2023-03-14T02:31:03;98974.13;;;-1.89;86.22
75312;BME280;63906;55.686;37.532;2023-03-14T02:36:07;98936.50;;;-1.71;86.45
75312;BME280;63906;55.686;37.532;2023-03-14T02:41:09;98893.19;;;-1.98;86.74
75312;BME280;63906;55.686;37.532;2023-03-14T02:46:16;98918.78;;;-1.85;87.49
75312;BME280;63906;55.686;37.532;2023-03-14T02:51:19;98918.28;;;-1.79;88.06
75312;BME280;63906;55.686;37.532;2023-03-14T02:56:20;98905.53;;;-1.71;88.04
75312;BME280;63906;55.686;37.532;2023-03-14T03:01:21;98910.53;;;-1.48;87.64
75312;BME280;63906;55.686;37.532;2023-03-14T03:06:22;98915.56;;;-1.37;87.75
75312;BME280;63906;55.686;37.532;2023-03-14T03:11:22;98915.84;;;-1.40;87.39
75312;BME280;63906;55.686;37.532;2023-03-14T03:16:23;98860.56;;;-1.28;87.62
75312;BME280;63906;55.686;37.532;2023-03-14T03:21:23;98892.94;;;-1.24;87.30
75312;BME280;63906;55.686;37.532;2023-03-14T03:26:24;98869.84;;;-0.96;87.90
75312;BME280;63906;55.686;37.532;2023-03-14T03:31:24;98852.88;;;-0.99;87.12
75312;BME280;63906;55.686;37.532;2023-03-14T03:36:25;98813.28;;;-1.28;86.94
75312;BME280;63906;55.686;37.532;2023-03-14T03:41:26;98804.19;;;-1.03;87.55
75312;BME280;63906;55.686;37.532;2023-03-14T03:46:26;98840.59;;;-0.87;87.76
75312;BME280;63906;55.686;37.532;2023-03-14T03:51:27;98813.81;;;-0.76;87.26
75312;BME280;63906;55.686;37.532;2023-03-14T03:56:28;98824.38;;;-0.41;87.56
75312;BME280;63906;55.686;37.532;2023-03-14T04:01:28;98827.94;;;-0.51;87.98
75312;BME280;63906;55.686;37.532;2023-03-14T04:06:29;98819.91;;;-0.48;88.02
75312;BME280;63906;55.686;37.532;2023-03-14T04:11:29;98808.22;;;-0.52;87.82
75312;BME280;63906;55.686;37.532;2023-03-14T04:16:30;98799.88;;;-0.37;87.88
75312;BME280;63906;55.686;37.532;2023-03-14T04:21:33;98789.00;;;-0.03;87.80
75312;BME280;63906;55.686;37.532;2023-03-14T04:26:34;98802.66;;;0.17;87.36
75312;BME280;63906;55.686;37.532;2023-03-14T04:31:34;98780.66;;;0.03;87.38
75312;BME280;63906;55.686;37.532;2023-03-14T04:36:35;98793.00;;;0.19;87.25
75312;BME280;63906;55.686;37.532;2023-03-14T04:41:35;98779.03;;;0.30;87.22
75312;BME280;63906;55.686;37.532;2023-03-14T04:46:36;98748.09;;;0.10;87.67
75312;BME280;63906;55.686;37.532;2023-03-14T04:51:38;98754.84;;;0.21;87.46
75312;BME280;63906;55.686;37.532;2023-03-14T04:56:39;98758.56;;;0.54;87.03
75312;BME280;63906;55.686;37.532;2023-03-14T05:01:39;98745.78;;;0.52;87.42
75312;BME280;63906;55.686;37.532;2023-03-14T05:06:41;98734.66;;;0.42;87.04
75312;BME280;63906;55.686;37.532;2023-03-14T05:11:42;98724.41;;;0.50;87.44
75312;BME280;63906;55.686;37.532;2023-03-14T05:16:43;98716.84;;;0.39;87.26
75312;BME280;63906;55.686;37.532;2023-03-14T05:21:43;98705.38;;;0.60;87.27
75312;BME280;63906;55.686;37.532;2023-03-14T05:26:44;98691.47;;;0.78;86.61
75312;BME280;63906;55.686;37.532;2023-03-14T05:31:44;98699.31;;;0.69;85.52
75312;BME280;63906;55.686;37.532;2023-03-14T05:36:45;98717.72;;;0.84;87.39
75312;BME280;63906;55.686;37.532;2023-03-14T05:41:45;98719.44;;;0.75;85.91
75312;BME280;63906;55.686;37.532;2023-03-14T05:46:46;98717.41;;;0.87;86.71
75312;BME280;63906;55.686;37.532;2023-03-14T05:51:46;98734.63;;;1.14;85.49
75312;BME280;63906;55.686;37.532;2023-03-14T05:56:47;98726.78;;;1.05;85.50
75312;BME280;63906;55.686;37.532;2023-03-14T06:01:47;98749.16;;;1.06;84.84
75312;BME280;63906;55.686;37.532;2023-03-14T06:06:48;98740.06;;;1.28;84.80
75312;BME280;63906;55.686;37.532;2023-03-14T06:11:49;98732.50;;;1.35;85.76
75312;BME280;63906;55.686;37.532;2023-03-14T06:16:50;98735.75;;;1.37;84.82
75312;BME280;63906;55.686;37.532;2023-03-14T06:21:51;98716.22;;;1.51;81.30
75312;BME280;63906;55.686;37.532;2023-03-14T06:26:51;98700.53;;;1.60;82.98
75312;BME280;63906;55.686;37.532;2023-03-14T06:31:52;98725.97;;;1.91;84.37
75312;BME280;63906;55.686;37.532;2023-03-14T06:36:53;98692.47;;;1.72;82.10
75312;BME280;63906;55.686;37.532;2023-03-14T06:41:53;98707.97;;;1.98;83.62
75312;BME280;63906;55.686;37.532;2023-03-14T06:46:54;98685.31;;;1.66;81.96
75312;BME280;63906;55.686;37.532;2023-03-14T06:51:54;98684.69;;;1.64;82.81
75312;BME280;63906;55.686;37.532;2023-03-14T06:56:55;98689.28;;;1.86;83.98
75312;BME280;63906;55.686;37.532;2023-03-14T07:01:58;98716.28;;;2.09;83.13
75312;BME280;63906;55.686;37.532;2023-03-14T07:06:59;98708.56;;;2.34;83.17
75312;BME280;63906;55.686;37.532;2023-03-14T07:12:00;98692.34;;;2.24;80.55
75312;BME280;63906;55.686;37.532;2023-03-14T07:17:02;98720.75;;;2.41;80.88
75312;BME280;63906;55.686;37.532;2023-03-14T07:22:04;98721.06;;;2.47;80.95
75312;BME280;63906;55.686;37.532;2023-03-14T07:27:04;98722.22;;;2.52;80.33
75312;BME280;63906;55.686;37.532;2023-03-14T07:32:05;98735.22;;;2.60;81.09
75312;BME280;63906;55.686;37.532;2023-03-14T07:37:06;98717.22;;;2.75;83.01
75312;BME280;63906;55.686;37.532;2023-03-14T07:42:06;98736.53;;;2.81;79.56
75312;BME280;63906;55.686;37.532;2023-03-14T07:47:07;98729.56;;;2.89;81.58
75312;BME280;63906;55.686;37.532;2023-03-14T07:52:07;98718.50;;;2.87;82.14
75312;BME280;63906;55.686;37.532;2023-03-14T07:57:08;98719.34;;;2.80;80.58
75312;BME280;63906;55.686;37.532;2023-03-14T08:02:11;98696.75;;;2.72;79.12
75312;BME280;63906;55.686;37.532;2023-03-14T08:07:14;98726.81;;;2.99;81.73
75312;BME280;63906;55.686;37.532;2023-03-14T08:12:15;98749.84;;;3.02;78.24
75312;BME280;63906;55.686;37.532;2023-03-14T08:17:16;98740.56;;;3.32;82.15
75312;BME280;63906;55.686;37.532;2023-03-14T08:22:17;98719.63;;;3.01;82.72
75312;BME280;63906;55.686;37.532;2023-03-14T08:27:18;98762.22;;;3.00;82.16
75312;BME280;63906;55.686;37.532;2023-03-14T08:32:18;98732.13;;;2.97;80.38
75312;BME280;63906;55.686;37.532;2023-03-14T08:37:20;98730.53;;;3.13;80.42
75312;BME280;63906;55.686;37.532;2023-03-14T08:42:20;98736.69;;;3.12;81.62
75312;BME280;63906;55.686;37.532;2023-03-14T08:47:21;98729.06;;;3.18;82.27
75312;BME280;63906;55.686;37.532;2023-03-14T08:52:22;98728.03;;;3.44;80.73
75312;BME280;63906;55.686;37.532;2023-03-14T08:57:22;98741.31;;;3.65;75.78
75312;BME280;63906;55.686;37.532;2023-03-14T09:02:27;98731.34;;;3.77;75.16
75312;BME280;63906;55.686;37.532;2023-03-14T09:07:28;98727.91;;;3.85;74.40
75312;BME280;63906;55.686;37.532;2023-03-14T09:12:28;98723.66;;;3.84;71.57
75312;BME280;63906;55.686;37.532;2023-03-14T09:17:29;98726.47;;;4.13;79.33
75312;BME280;63906;55.686;37.532;2023-03-14T09:22:29;98741.28;;;4.44;77.75
75312;BME280;63906;55.686;37.532;2023-03-14T09:27:30;98749.28;;;4.42;77.95
75312;BME280;63906;55.686;37.532;2023-03-14T09:32:30;98751.50;;;4.53;77.18
75312;BME280;63906;55.686;37.532;2023-03-14T09:37:34;98737.97;;;4.27;77.45
75312;BME280;63906;55.686;37.532;2023-03-14T09:42:36;98746.84;;;4.41;76.73
75312;BME280;63906;55.686;37.532;2023-03-14T09:47:40;98743.50;;;4.55;68.34
75312;BME280;63906;55.686;37.532;2023-03-14T09:52:42;98717.91;;;4.58;75.61
75312;BME280;63906;55.686;37.532;2023-03-14T09:57:47;98740.47;;;4.89;71.90
75312;BME280;63906;55.686;37.532;2023-03-14T10:08:14;98735.34;;;5.19;74.56
75312;BME280;63906;55.686;37.532;2023-03-14T10:18:23;98685.06;;;5.39;70.63
75312;BME280;63906;55.686;37.532;2023-03-14T10:23:27;98683.09;;;5.71;72.68
75312;BME280;63906;55.686;37.532;2023-03-14T10:28:33;98692.78;;;6.07;74.52
75312;BME280;63906;55.686;37.532;2023-03-14T10:33:36;98701.09;;;5.96;74.68
75312;BME280;63906;55.686;37.532;2023-03-14T10:38:37;98693.63;;;5.92;74.42
75312;BME280;63906;55.686;37.532;2023-03-14T10:43:38;98672.56;;;5.64;71.11
75312;BME280;63906;55.686;37.532;2023-03-14T10:48:39;98694.06;;;5.81;75.82
75312;BME280;63906;55.686;37.532;2023-03-14T10:53:55;98666.97;;;5.82;72.00
75312;BME280;63906;55.686;37.532;2023-03-14T10:58:57;98676.13;;;6.08;73.97
75312;BME280;63906;55.686;37.532;2023-03-14T11:04:15;98680.41;;;6.30;66.29
75312;BME280;63906;55.686;37.532;2023-03-14T11:09:37;98666.56;;;6.79;70.55
75312;BME280;63906;55.686;37.532;2023-03-14T11:14:47;98666.69;;;7.62;67.10
75312;BME280;63906;55.686;37.532;2023-03-14T11:20:10;98666.53;;;7.70;69.85
75312;BME280;63906;55.686;37.532;2023-03-14T11:30:54;98708.72;;;7.47;67.35
75312;BME280;63906;55.686;37.532;2023-03-14T11:36:04;98680.97;;;7.24;62.71
75312;BME280;63906;55.686;37.532;2023-03-14T11:41:15;98673.69;;;7.20;59.58
75312;BME280;63906;55.686;37.532;2023-03-14T11:46:45;98674.56;;;7.27;69.27
75312;BME280;63906;55.686;37.532;2023-03-14T11:51:52;98672.94;;;7.26;69.38
75312;BME280;63906;55.686;37.532;2023-03-14T11:57:12;98691.06;;;6.99;61.88
75312;BME280;63906;55.686;37.532;2023-03-14T12:07:20;98707.00;;;7.05;60.09
75312;BME280;63906;55.686;37.532;2023-03-14T12:12:24;98710.53;;;6.90;66.28
75312;BME280;63906;55.686;37.532;2023-03-14T12:17:41;98711.84;;;7.08;66.69
75312;BME280;63906;55.686;37.532;2023-03-14T12:22:45;98719.91;;;7.06;63.78
75312;BME280;63906;55.686;37.532;2023-03-14T12:43:49;98735.69;;;6.91;61.89
75312;BME280;63906;55.686;37.532;2023-03-14T12:49:03;98731.13;;;6.57;62.43
75312;BME280;63906;55.686;37.532;2023-03-14T13:04:34;98709.63;;;5.89;66.58
75312;BME280;63906;55.686;37.532;2023-03-14T13:09:50;98716.34;;;5.92;71.12
75312;BME280;63906;55.686;37.532;2023-03-14T13:14:52;98712.06;;;6.06;69.85
75312;BME280;63906;55.686;37.532;2023-03-14T13:19:56;98713.09;;;6.26;70.12
75312;BME280;63906;55.686;37.532;2023-03-14T13:25:03;98712.00;;;6.35;69.21
75312;BME280;63906;55.686;37.532;2023-03-14T13:30:24;98709.59;;;6.34;68.82
75312;BME280;63906;55.686;37.532;2023-03-14T13:35:27;98701.78;;;6.19;63.26
75312;BME280;63906;55.686;37.532;2023-03-14T13:40:33;98701.91;;;6.32;66.23
75312;BME280;63906;55.686;37.532;2023-03-14T13:45:48;98702.03;;;6.45;70.39
75312;BME280;63906;55.686;37.532;2023-03-14T13:50:51;98684.88;;;6.36;69.20
75312;BME280;63906;55.686;37.532;2023-03-14T13:55:53;98709.13;;;6.30;67.68
75312;BME280;63906;55.686;37.532;2023-03-14T14:01:18;98712.59;;;6.16;56.98
75312;BME280;63906;55.686;37.532;2023-03-14T14:06:31;98694.56;;;6.21;67.31
75312;BME280;63906;55.686;37.532;2023-03-14T14:16:43;98704.66;;;6.24;64.07
75312;BME280;63906;55.686;37.532;2023-03-14T14:21:45;98692.59;;;6.08;64.61
75312;BME280;63906;55.686;37.532;2023-03-14T14:27:08;98727.47;;;6.15;68.18
75312;BME280;63906;55.686;37.532;2023-03-14T14:32:14;98727.03;;;6.12;67.88
75312;BME280;63906;55.686;37.532;2023-03-14T14:37:24;98726.81;;;6.28;67.98
75312;BME280;63906;55.686;37.532;2023-03-14T14:42:28;98740.50;;;6.30;62.03
75312;BME280;63906;55.686;37.532;2023-03-14T14:47:30;98745.84;;;6.07;58.80
75312;BME280;63906;55.686;37.532;2023-03-14T14:52:39;98738.03;;;5.92;59.15
75312;BME280;63906;55.686;37.532;2023-03-14T14:57:39;98746.16;;;5.98;57.55
75312;BME280;63906;55.686;37.532;2023-03-14T15:02:45;98719.44;;;5.87;66.11
75312;BME280;63906;55.686;37.532;2023-03-14T15:07:47;98727.06;;;5.97;66.28
75312;BME280;63906;55.686;37.532;2023-03-14T15:12:48;98729.56;;;5.90;63.64
75312;BME280;63906;55.686;37.532;2023-03-14T15:17:48;98724.78;;;5.79;66.59
75312;BME280;63906;55.686;37.532;2023-03-14T15:22:49;98732.00;;;5.92;68.17
75312;BME280;63906;55.686;37.532;2023-03-14T15:27:50;98746.91;;;5.83;64.78
75312;BME280;63906;55.686;37.532;2023-03-14T15:32:50;98756.03;;;5.73;62.59
75312;BME280;63906;55.686;37.532;2023-03-14T15:37:51;98741.97;;;5.59;61.53
75312;BME280;63906;55.686;37.532;2023-03-14T15:42:52;98739.63;;;5.64;65.72
75312;BME280;63906;55.686;37.532;2023-03-14T15:47:52;98729.00;;;5.80;65.09
75312;BME280;63906;55.686;37.532;2023-03-14T15:52:53;98739.00;;;5.77;66.27
75312;BME280;63906;55.686;37.532;2023-03-14T15:57:54;98732.97;;;5.76;65.41
75312;BME280;63906;55.686;37.532;2023-03-14T16:02:54;98761.31;;;5.64;65.65
75312;BME280;63906;55.686;37.532;2023-03-14T16:07:55;98774.94;;;5.60;66.24
75312;BME280;63906;55.686;37.532;2023-03-14T16:12:56;98771.03;;;5.71;63.01
75312;BME280;63906;55.686;37.532;2023-03-14T16:17:56;98751.13;;;5.40;62.43
75312;BME280;63906;55.686;37.532;2023-03-14T16:22:57;98760.22;;;5.29;68.57
75312;BME280;63906;55.686;37.532;2023-03-14T16:27:57;98797.38;;;5.31;66.43
75312;BME280;63906;55.686;37.532;2023-03-14T16:32:58;98811.13;;;5.25;65.43
75312;BME280;63906;55.686;37.532;2023-03-14T16:38:01;98810.22;;;5.33;63.98
75312;BME280;63906;55.686;37.532;2023-03-14T16:43:01;98806.56;;;5.04;63.38
75312;BME280;63906;55.686;37.532;2023-03-14T16:48:03;98815.53;;;5.02;69.07
75312;BME280;63906;55.686;37.532;2023-03-14T16:53:04;98800.09;;;5.15;66.99
75312;BME280;63906;55.686;37.532;2023-03-14T16:58:04;98821.25;;;5.20;63.03
75312;BME280;63906;55.686;37.532;2023-03-14T17:03:05;98814.03;;;5.07;66.38
75312;BME280;63906;55.686;37.532;2023-03-14T17:08:05;98807.03;;;4.85;61.18
75312;BME280;63906;55.686;37.532;2023-03-14T17:13:06;98801.94;;;4.92;63.86
75312;BME280;63906;55.686;37.532;2023-03-14T17:18:06;98811.88;;;4.88;62.90
75312;BME280;63906;55.686;37.532;2023-03-14T17:23:07;98817.66;;;4.75;63.38
75312;BME280;63906;55.686;37.532;2023-03-14T17:28:09;98777.69;;;4.60;61.28
75312;BME280;63906;55.686;37.532;2023-03-14T17:33:10;98817.03;;;4.96;64.19
75312;BME280;63906;55.686;37.532;2023-03-14T17:38:11;98805.84;;;4.88;61.33
75312;BME280;63906;55.686;37.532;2023-03-14T17:43:12;98813.13;;;4.69;61.14
75312;BME280;63906;55.686;37.532;2023-03-14T17:48:13;98815.69;;;4.77;63.78
75312;BME280;63906;55.686;37.532;2023-03-14T17:53:13;98791.72;;;4.51;63.53
75312;BME280;63906;55.686;37.532;2023-03-14T17:58:14;98823.81;;;4.82;58.92
75312;BME280;63906;55.686;37.532;2023-03-14T18:03:15;98830.06;;;4.96;67.58
75312;BME280;63906;55.686;37.532;2023-03-14T18:08:15;98821.50;;;4.88;63.73
75312;BME280;63906;55.686;37.532;2023-03-14T18:13:16;98794.81;;;4.77;58.81
75312;BME280;63906;55.686;37.532;2023-03-14T18:18:17;98799.72;;;4.80;65.69
75312;BME280;63906;55.686;37.532;2023-03-14T18:23:18;98824.09;;;4.88;63.75
75312;BME280;63906;55.686;37.532;2023-03-14T18:28:19;98819.13;;;5.01;67.39
75312;BME280;63906;55.686;37.532;2023-03-14T18:33:21;98824.03;;;4.96;61.52
75312;BME280;63906;55.686;37.532;2023-03-14T18:38:24;98809.56;;;4.93;62.56
75312;BME280;63906;55.686;37.532;2023-03-14T18:43:25;98832.28;;;5.07;64.78
75312;BME280;63906;55.686;37.532;2023-03-14T18:48:26;98838.88;;;4.72;57.76
75312;BME280;63906;55.686;37.532;2023-03-14T18:53:31;98831.00;;;4.80;65.87
75312;BME280;63906;55.686;37.532;2023-03-14T18:58:32;98817.34;;;4.78;64.24
75312;BME280;63906;55.686;37.532;2023-03-14T19:03:34;98802.03;;;4.75;63.36
75312;BME280;63906;55.686;37.532;2023-03-14T19:08:37;98831.22;;;4.94;65.56
75312;BME280;63906;55.686;37.532;2023-03-14T19:13:39;98774.91;;;4.62;60.88
75312;BME280;63906;55.686;37.532;2023-03-14T19:18:41;98841.38;;;4.89;61.43
75312;BME280;63906;55.686;37.532;2023-03-14T19:23:42;98837.13;;;4.88;62.56
75312;BME280;63906;55.686;37.532;2023-03-14T19:28:45;98826.09;;;4.77;54.37
75312;BME280;63906;55.686;37.532;2023-03-14T19:33:46;98842.84;;;4.91;62.58
75312;BME280;63906;55.686;37.532;2023-03-14T19:38:47;98879.47;;;4.98;57.49
75312;BME280;63906;55.686;37.532;2023-03-14T19:43:48;98862.47;;;5.02;60.50
75312;BME280;63906;55.686;37.532;2023-03-14T19:48:50;98863.13;;;5.04;62.23
75312;BME280;63906;55.686;37.532;2023-03-14T19:53:53;98870.28;;;4.79;63.10
75312;BME280;63906;55.686;37.532;2023-03-14T19:58:54;98878.59;;;4.74;65.08
75312;BME280;63906;55.686;37.532;2023-03-14T20:03:55;98859.75;;;4.64;60.15
75312;BME280;63906;55.686;37.532;2023-03-14T20:08:57;98859.97;;;4.54;58.82
75312;BME280;63906;55.686;37.532;2023-03-14T20:13:57;98876.16;;;4.33;67.18
75312;BME280;63906;55.686;37.532;2023-03-14T20:19:08;98864.50;;;4.13;64.25
75312;BME280;63906;55.686;37.532;2023-03-14T20:24:09;98861.41;;;4.18;65.96
75312;BME280;63906;55.686;37.532;2023-03-14T20:29:09;98840.47;;;3.95;64.35
75312;BME280;63906;55.686;37.532;2023-03-14T20:34:10;98854.78;;;3.99;65.76
75312;BME280;63906;55.686;37.532;2023-03-14T20:39:10;98873.75;;;4.16;61.11
75312;BME280;63906;55.686;37.532;2023-03-14T20:44:14;98869.03;;;4.19;58.27
75312;BME280;63906;55.686;37.532;2023-03-14T20:49:14;98848.25;;;4.03;68.32
75312;BME280;63906;55.686;37.532;2023-03-14T20:54:15;98861.97;;;3.89;57.83
75312;BME280;63906;55.686;37.532;2023-03-14T20:59:16;98868.28;;;4.02;67.26
75312;BME280;63906;55.686;37.532;2023-03-14T21:04:17;98859.53;;;3.87;56.24
75312;BME280;63906;55.686;37.532;2023-03-14T21:09:17;98881.09;;;4.20;63.71
75312;BME280;63906;55.686;37.532;2023-03-14T21:14:18;98874.13;;;4.13;56.14
75312;BME280;63906;55.686;37.532;2023-03-14T21:19:18;98879.44;;;4.27;63.54
75312;BME280;63906;55.686;37.532;2023-03-14T21:24:19;98884.25;;;4.55;61.34
75312;BME280;63906;55.686;37.532;2023-03-14T21:29:20;98882.25;;;4.57;57.70
75312;BME280;63906;55.686;37.532;2023-03-14T21:34:21;98877.00;;;4.73;60.39
75312;BME280;63906;55.686;37.532;2023-03-14T21:39:25;98900.41;;;4.81;58.28
75312;BME280;63906;55.686;37.532;2023-03-14T21:44:26;98861.09;;;4.60;57.19
75312;BME280;63906;55.686;37.532;2023-03-14T21:49:26;98861.53;;;4.64;59.91
75312;BME280;63906;55.686;37.532;2023-03-14T21:54:27;98867.13;;;4.61;58.96
75312;BME280;63906;55.686;37.532;2023-03-14T21:59:31;98888.09;;;4.59;57.74
75312;BME280;63906;55.686;37.532;2023-03-14T22:04:33;98900.59;;;4.72;67.18
75312;BME280;63906;55.686;37.532;2023-03-14T22:09:41;98900.81;;;4.62;65.32
75312;BME280;63906;55.686;37.532;2023-03-14T22:14:42;98892.88;;;4.55;65.33
75312;BME280;63906;55.686;37.532;2023-03-14T22:19:43;98878.03;;;4.56;63.01
75312;BME280;63906;55.686;37.532;2023-03-14T22:24:43;98872.75;;;4.33;59.88
75312;BME280;63906;55.686;37.532;2023-03-14T22:29:44;98899.78;;;4.71;66.66
75312;BME280;63906;55.686;37.532;2023-03-14T22:34:45;98902.13;;;4.66;57.39
75312;BME280;63906;55.686;37.532;2023-03-14T22:39:45;98893.50;;;4.57;67.04
75312;BME280;63906;55.686;37.532;2023-03-14T22:44:46;98907.47;;;4.73;59.75
75312;BME280;63906;55.686;37.532;2023-03-14T22:49:46;98888.78;;;4.61;58.10
75312;BME280;63906;55.686;37.532;2023-03-14T22:54:47;98883.22;;;4.64;60.68
75312;BME280;63906;55.686;37.532;2023-03-14T22:59:47;98873.13;;;4.61;59.28
75312;BME280;63906;55.686;37.532;2023-03-14T23:04:48;98900.00;;;4.62;61.34
75312;BME280;63906;55.686;37.532;2023-03-14T23:09:49;98870.34;;;4.23;59.41
75312;BME280;63906;55.686;37.532;2023-03-14T23:14:49;98895.53;;;4.39;64.92
75312;BME280;63906;55.686;37.532;2023-03-14T23:19:51;98887.25;;;4.27;59.76
75312;BME280;63906;55.686;37.532;2023-03-14T23:24:52;98896.00;;;4.43;65.21
75312;BME280;63906;55.686;37.532;2023-03-14T23:29:53;98906.97;;;4.69;61.50
75312;BME280;63906;55.686;37.532;2023-03-14T23:34:53;98916.47;;;4.62;60.83
75312;BME280;63906;55.686;37.532;2023-03-14T23:39:54;98906.25;;;4.44;61.47
75312;BME280;63906;55.686;37.532;2023-03-14T23:44:54;98911.59;;;4.51;64.81
75312;BME280;63906;55.686;37.532;2023-03-14T23:49:55;98890.66;;;4.28;63.20
75312;BME280;63906;55.686;37.532;2023-03-14T23:54:55;98916.88;;;4.26;68.24
75312;BME280;63906;55.686;37.532;2023-03-14T23:59:56;98887.31;;;4.11;57.67
